sensor_id;sensor_type;location;lat;lon;timestamp;pressure;altitude;pressure_sealevel;temperature;humidity
50380;BME280;37474;59.468;18.040;2023-02-23T00:00:45;101677.47;;;-1.91;88.58
50380;BME280;37474;59.468;18.040;2023-02-23T00:03:12;101674.16;;;-1.89;89.50
50380;BME280;37474;59.468;18.040;2023-02-23T00:05:42;101675.69;;;-1.97;88.57
50380;BME280;37474;59.468;18.040;2023-02-23T00:08:12;101668.31;;;-1.81;89.09
50380;BME280;37474;59.468;18.040;2023-02-23T00:10:40;101652.13;;;-1.88;88.38
50380;BME280;37474;59.468;18.040;2023-02-23T00:13:12;101672.41;;;-1.90;89.46
50380;BME280;37474;59.468;18.040;2023-02-23T00:15:43;101661.53;;;-1.82;89.49
50380;BME280;37474;59.468;18.040;2023-02-23T00:18:11;101642.50;;;-2.09;90.09
50380;BME280;37474;59.468;18.040;2023-02-23T00:20:44;101645.25;;;-1.94;89.16
50380;BME280;37474;59.468;18.040;2023-02-23T00:23:15;101619.63;;;-2.10;90.54
50380;BME280;37474;59.468;18.040;2023-02-23T00:25:43;101664.06;;;-1.82;90.07
50380;BME280;37474;59.468;18.040;2023-02-23T00:28:14;101612.16;;;-1.97;90.30
50380;BME280;37474;59.468;18.040;2023-02-23T00:30:45;101644.44;;;-1.90;91.04
50380;BME280;37474;59.468;18.040;2023-02-23T00:33:13;101609.47;;;-2.07;90.71
50380;BME280;37474;59.468;18.040;2023-02-23T00:35:45;101634.19;;;-1.97;91.14
50380;BME280;37474;59.468;18.040;2023-02-23T00:38:14;101642.75;;;-1.91;90.74
50380;BME280;37474;59.468;18.040;2023-02-23T00:40:42;101639.56;;;-1.77;90.47
50380;BME280;37474;59.468;18.040;2023-02-23T00:43:13;101634.47;;;-1.77;90.47
50380;BME280;37474;59.468;18.040;2023-02-23T00:45:47;101581.34;;;-2.21;91.52
50380;BME280;37474;59.468;18.040;2023-02-23T00:48:17;101628.28;;;-1.96;91.46
50380;BME280;37474;59.468;18.040;2023-02-23T00:50:47;101597.59;;;-2.08;91.41
50380;BME280;37474;59.468;18.040;2023-02-23T00:53:18;101618.78;;;-2.06;92.32
50380;BME280;37474;59.468;18.040;2023-02-23T00:55:45;101623.81;;;-2.11;93.12
50380;BME280;37474;59.468;18.040;2023-02-23T00:58:15;101613.16;;;-1.87;92.30
50380;BME280;37474;59.468;18.040;2023-02-23T01:00:46;101616.56;;;-1.83;91.41
50380;BME280;37474;59.468;18.040;2023-02-23T01:03:14;101615.72;;;-1.86;90.73
50380;BME280;37474;59.468;18.040;2023-02-23T01:05:44;101580.66;;;-2.09;91.69
50380;BME280;37474;59.468;18.040;2023-02-23T01:08:17;101574.91;;;-1.96;91.06
50380;BME280;37474;59.468;18.040;2023-02-23T01:10:47;101590.28;;;-1.89;91.29
50380;BME280;37474;59.468;18.040;2023-02-23T01:13:21;101575.66;;;-2.05;91.67
50380;BME280;37474;59.468;18.040;2023-02-23T01:15:52;101591.97;;;-1.88;91.00
50380;BME280;37474;59.468;18.040;2023-02-23T01:18:20;101590.28;;;-1.86;91.54
50380;BME280;37474;59.468;18.040;2023-02-23T01:20:52;101586.91;;;-1.84;91.75
50380;BME280;37474;59.468;18.040;2023-02-23T01:23:20;101584.50;;;-1.77;91.19
50380;BME280;37474;59.468;18.040;2023-02-23T01:25:48;101574.34;;;-1.72;91.65
50380;BME280;37474;59.468;18.040;2023-02-23T01:28:20;101580.41;;;-1.66;91.34
50380;BME280;37474;59.468;18.040;2023-02-23T01:30:48;101572.72;;;-1.70;91.40
50380;BME280;37474;59.468;18.040;2023-02-23T01:33:19;101574.28;;;-1.78;92.38
50380;BME280;37474;59.468;18.040;2023-02-23T01:35:58;101572.78;;;-1.66;91.59
50380;BME280;37474;59.468;18.040;2023-02-23T01:38:26;101567.66;;;-1.67;91.55
50380;BME280;37474;59.468;18.040;2023-02-23T01:40:54;101567.81;;;-1.52;91.93
50380;BME280;37474;59.468;18.040;2023-02-23T01:43:24;101524.34;;;-1.76;92.54
50380;BME280;37474;59.468;18.040;2023-02-23T01:45:55;101555.03;;;-1.58;94.10
50380;BME280;37474;59.468;18.040;2023-02-23T01:48:28;101517.44;;;-1.85;94.88
50380;BME280;37474;59.468;18.040;2023-02-23T01:51:05;101551.56;;;-1.66;96.62
50380;BME280;37474;59.468;18.040;2023-02-23T01:53:40;101545.66;;;-1.64;96.97
50380;BME280;37474;59.468;18.040;2023-02-23T01:56:14;101547.38;;;-1.63;98.74
50380;BME280;37474;59.468;18.040;2023-02-23T01:58:49;101515.03;;;-1.76;99.24
50380;BME280;37474;59.468;18.040;2023-02-23T02:01:20;101538.81;;;-1.69;100.00
50380;BME280;37474;59.468;18.040;2023-02-23T02:03:55;101506.31;;;-1.95;100.00
50380;BME280;37474;59.468;18.040;2023-02-23T02:06:29;101526.03;;;-1.75;100.00
50380;BME280;37474;59.468;18.040;2023-02-23T02:09:06;101487.72;;;-1.89;100.00
50380;BME280;37474;59.468;18.040;2023-02-23T02:11:40;101509.75;;;-1.90;100.00
50380;BME280;37474;59.468;18.040;2023-02-23T02:14:15;101525.06;;;-1.83;100.00
50380;BME280;37474;59.468;18.040;2023-02-23T02:16:54;101516.78;;;-1.69;100.00
50380;BME280;37474;59.468;18.040;2023-02-23T02:23:11;101508.91;;;-1.90;100.00
50380;BME280;37474;59.468;18.040;2023-02-23T02:25:58;101468.97;;;-2.02;100.00
50380;BME280;37474;59.468;18.040;2023-02-23T02:28:46;101505.50;;;-1.94;100.00
50380;BME280;37474;59.468;18.040;2023-02-23T02:34:40;101490.41;;;-1.78;100.00
50380;BME280;37474;59.468;18.040;2023-02-23T02:37:27;101388.97;;;-2.37;100.00
50380;BME280;37474;59.468;18.040;2023-02-23T02:40:01;101481.00;;;-1.86;100.00
50380;BME280;37474;59.468;18.040;2023-02-23T02:43:02;101481.78;;;-1.93;100.00
50380;BME280;37474;59.468;18.040;2023-02-23T02:45:42;101468.19;;;-1.95;100.00
50380;BME280;37474;59.468;18.040;2023-02-23T02:48:21;101475.03;;;-1.89;100.00
50380;BME280;37474;59.468;18.040;2023-02-23T02:50:54;101427.44;;;-2.05;100.00
50380;BME280;37474;59.468;18.040;2023-02-23T02:53:34;101459.91;;;-1.78;100.00
50380;BME280;37474;59.468;18.040;2023-02-23T02:56:06;101440.28;;;-1.90;100.00
50380;BME280;37474;59.468;18.040;2023-02-23T02:58:41;101455.66;;;-1.78;100.00
50380;BME280;37474;59.468;18.040;2023-02-23T03:01:13;101423.16;;;-2.06;100.00
50380;BME280;37474;59.468;18.040;2023-02-23T03:04:16;101424.97;;;-1.99;100.00
50380;BME280;37474;59.468;18.040;2023-02-23T03:07:08;101443.06;;;-1.69;100.00
50380;BME280;37474;59.468;18.040;2023-02-23T03:10:05;101437.19;;;-1.66;100.00
50380;BME280;37474;59.468;18.040;2023-02-23T03:12:57;101437.88;;;-1.79;100.00
50380;BME280;37474;59.468;18.040;2023-02-23T03:15:58;101431.94;;;-1.80;100.00
50380;BME280;37474;59.468;18.040;2023-02-23T03:18:54;101436.28;;;-1.67;100.00
50380;BME280;37474;59.468;18.040;2023-02-23T03:21:49;101437.13;;;-1.68;100.00
50380;BME280;37474;59.468;18.040;2023-02-23T03:24:39;101409.84;;;-1.86;100.00
50380;BME280;37474;59.468;18.040;2023-02-23T03:27:39;101419.41;;;-1.62;100.00
50380;BME280;37474;59.468;18.040;2023-02-23T03:30:36;101416.06;;;-1.56;100.00
50380;BME280;37474;59.468;18.040;2023-02-23T03:33:33;101411.66;;;-1.74;100.00
50380;BME280;37474;59.468;18.040;2023-02-23T03:36:25;101394.72;;;-1.73;100.00
50380;BME280;37474;59.468;18.040;2023-02-23T03:39:20;101404.03;;;-1.77;100.00
50380;BME280;37474;59.468;18.040;2023-02-23T03:42:18;101410.00;;;-1.72;100.00
50380;BME280;37474;59.468;18.040;2023-02-23T03:45:09;101401.50;;;-1.74;100.00
50380;BME280;37474;59.468;18.040;2023-02-23T03:48:02;101354.72;;;-1.91;100.00
50380;BME280;37474;59.468;18.040;2023-02-23T03:50:52;101393.81;;;-1.78;100.00
50380;BME280;37474;59.468;18.040;2023-02-23T03:53:45;101387.22;;;-1.60;100.00
50380;BME280;37474;59.468;18.040;2023-02-23T03:56:34;101390.56;;;-1.65;100.00
50380;BME280;37474;59.468;18.040;2023-02-23T03:59:26;101377.06;;;-1.56;100.00
50380;BME280;37474;59.468;18.040;2023-02-23T04:02:18;101348.91;;;-1.81;100.00
50380;BME280;37474;59.468;18.040;2023-02-23T04:05:17;101378.59;;;-1.77;100.00
50380;BME280;37474;59.468;18.040;2023-02-23T04:08:08;101365.09;;;-1.70;100.00
50380;BME280;37474;59.468;18.040;2023-02-23T04:11:03;101365.09;;;-1.68;100.00
50380;BME280;37474;59.468;18.040;2023-02-23T04:13:59;101364.38;;;-1.55;100.00
50380;BME280;37474;59.468;18.040;2023-02-23T04:16:31;101360.13;;;-1.59;100.00
50380;BME280;37474;59.468;18.040;2023-02-23T04:19:02;101357.53;;;-1.62;100.00
50380;BME280;37474;59.468;18.040;2023-02-23T04:21:30;101344.81;;;-1.65;100.00
50380;BME280;37474;59.468;18.040;2023-02-23T04:24:00;101349.91;;;-1.62;100.00
50380;BME280;37474;59.468;18.040;2023-02-23T04:26:30;101350.78;;;-1.60;100.00
50380;BME280;37474;59.468;18.040;2023-02-23T04:28:58;101283.56;;;-1.94;100.00
50380;BME280;37474;59.468;18.040;2023-02-23T04:31:27;101350.03;;;-1.50;100.00
50380;BME280;37474;59.468;18.040;2023-02-23T04:33:57;101343.97;;;-1.63;100.00
50380;BME280;37474;59.468;18.040;2023-02-23T04:36:26;101339.78;;;-1.56;100.00
50380;BME280;37474;59.468;18.040;2023-02-23T04:38:56;101343.13;;;-1.62;100.00
50380;BME280;37474;59.468;18.040;2023-02-23T04:41:26;101341.44;;;-1.61;100.00
50380;BME280;37474;59.468;18.040;2023-02-23T04:43:56;101333.84;;;-1.58;100.00
50380;BME280;37474;59.468;18.040;2023-02-23T04:46:26;101325.41;;;-1.52;100.00
50380;BME280;37474;59.468;18.040;2023-02-23T04:48:54;101333.88;;;-1.55;100.00
50380;BME280;37474;59.468;18.040;2023-02-23T04:51:24;101323.66;;;-1.58;100.00
50380;BME280;37474;59.468;18.040;2023-02-23T04:54:01;101320.28;;;-1.57;100.00
50380;BME280;37474;59.468;18.040;2023-02-23T04:56:31;101297.34;;;-1.66;100.00
50380;BME280;37474;59.468;18.040;2023-02-23T04:59:01;101316.13;;;-1.49;100.00
50380;BME280;37474;59.468;18.040;2023-02-23T05:01:31;101305.81;;;-1.64;100.00
50380;BME280;37474;59.468;18.040;2023-02-23T05:03:58;101288.00;;;-1.72;100.00
50380;BME280;37474;59.468;18.040;2023-02-23T05:06:29;101308.47;;;-1.52;100.00
50380;BME280;37474;59.468;18.040;2023-02-23T05:09:01;101309.34;;;-1.45;100.00
50380;BME280;37474;59.468;18.040;2023-02-23T05:11:32;101304.19;;;-1.56;100.00
50380;BME280;37474;59.468;18.040;2023-02-23T05:14:02;101293.97;;;-1.62;100.00
50380;BME280;37474;59.468;18.040;2023-02-23T05:16:32;101299.13;;;-1.54;100.00
50380;BME280;37474;59.468;18.040;2023-02-23T05:19:00;101298.28;;;-1.52;100.00
50380;BME280;37474;59.468;18.040;2023-02-23T05:21:30;101287.28;;;-1.51;100.00
50380;BME280;37474;59.468;18.040;2023-02-23T05:24:01;101294.91;;;-1.52;100.00
50380;BME280;37474;59.468;18.040;2023-02-23T05:26:29;101289.00;;;-1.47;100.00
50380;BME280;37474;59.468;18.040;2023-02-23T05:28:59;101287.38;;;-1.39;100.00
50380;BME280;37474;59.468;18.040;2023-02-23T05:31:30;101287.31;;;-1.45;100.00
50380;BME280;37474;59.468;18.040;2023-02-23T05:33:58;101285.53;;;-1.58;100.00
50380;BME280;37474;59.468;18.040;2023-02-23T05:36:28;101275.28;;;-1.67;100.00
50380;BME280;37474;59.468;18.040;2023-02-23T05:38:58;101248.94;;;-1.81;100.00
50380;BME280;37474;59.468;18.040;2023-02-23T05:41:28;101266.84;;;-1.65;100.00
50380;BME280;37474;59.468;18.040;2023-02-23T05:43:58;101258.41;;;-1.59;100.00
50380;BME280;37474;59.468;18.040;2023-02-23T05:46:28;101249.13;;;-1.52;100.00
50380;BME280;37474;59.468;18.040;2023-02-23T05:48:57;101256.78;;;-1.45;100.00
50380;BME280;37474;59.468;18.040;2023-02-23T05:51:31;101254.25;;;-1.49;100.00
50380;BME280;37474;59.468;18.040;2023-02-23T05:54:01;101221.16;;;-1.55;100.00
50380;BME280;37474;59.468;18.040;2023-02-23T05:56:32;101246.69;;;-1.39;100.00
50380;BME280;37474;59.468;18.040;2023-02-23T05:59:00;101240.75;;;-1.38;100.00
50380;BME280;37474;59.468;18.040;2023-02-23T06:01:30;101239.03;;;-1.40;100.00
50380;BME280;37474;59.468;18.040;2023-02-23T06:04:00;101231.34;;;-1.48;100.00
50380;BME280;37474;59.468;18.040;2023-02-23T06:06:31;101229.72;;;-1.37;100.00
50380;BME280;37474;59.468;18.040;2023-02-23T06:09:01;101211.00;;;-1.48;100.00
50380;BME280;37474;59.468;18.040;2023-02-23T06:11:32;101225.50;;;-1.36;100.00
50380;BME280;37474;59.468;18.040;2023-02-23T06:14:00;101224.59;;;-1.43;100.00
50380;BME280;37474;59.468;18.040;2023-02-23T06:16:30;101229.66;;;-1.46;100.00
50380;BME280;37474;59.468;18.040;2023-02-23T06:18:58;101214.47;;;-1.34;100.00
50380;BME280;37474;59.468;18.040;2023-02-23T06:21:27;101221.19;;;-1.45;100.00
50380;BME280;37474;59.468;18.040;2023-02-23T06:23:59;101208.53;;;-1.36;100.00
50380;BME280;37474;59.468;18.040;2023-02-23T06:26:28;101200.88;;;-1.42;100.00
50380;BME280;37474;59.468;18.040;2023-02-23T06:28:57;101204.34;;;-1.24;100.00
50380;BME280;37474;59.468;18.040;2023-02-23T06:31:29;101200.91;;;-1.37;100.00
50380;BME280;37474;59.468;18.040;2023-02-23T06:33:59;101200.94;;;-1.29;100.00
50380;BME280;37474;59.468;18.040;2023-02-23T06:36:26;101201.81;;;-1.26;100.00
50380;BME280;37474;59.468;18.040;2023-02-23T06:38:57;101145.75;;;-1.49;100.00
50380;BME280;37474;59.468;18.040;2023-02-23T06:41:28;101199.25;;;-1.23;100.00
50380;BME280;37474;59.468;18.040;2023-02-23T06:44:00;101160.22;;;-1.33;100.00
50380;BME280;37474;59.468;18.040;2023-02-23T06:46:27;101168.72;;;-1.32;100.00
50380;BME280;37474;59.468;18.040;2023-02-23T06:48:57;101184.88;;;-1.12;100.00
50380;BME280;37474;59.468;18.040;2023-02-23T06:51:28;101188.22;;;-1.25;100.00
50380;BME280;37474;59.468;18.040;2023-02-23T06:53:56;101181.50;;;-1.15;100.00
50380;BME280;37474;59.468;18.040;2023-02-23T06:56:24;101181.47;;;-1.27;100.00
50380;BME280;37474;59.468;18.040;2023-02-23T06:58:54;101188.25;;;-1.19;100.00
50380;BME280;37474;59.468;18.040;2023-02-23T07:01:23;101174.66;;;-1.24;100.00
50380;BME280;37474;59.468;18.040;2023-02-23T07:03:55;101164.53;;;-1.15;100.00
50380;BME280;37474;59.468;18.040;2023-02-23T07:06:23;101162.00;;;-1.10;100.00
50380;BME280;37474;59.468;18.040;2023-02-23T07:08:50;101165.41;;;-1.10;100.00
50380;BME280;37474;59.468;18.040;2023-02-23T07:11:23;101160.31;;;-1.02;100.00
50380;BME280;37474;59.468;18.040;2023-02-23T07:13:50;101155.25;;;-0.96;100.00
50380;BME280;37474;59.468;18.040;2023-02-23T07:16:18;101128.06;;;-1.21;100.00
50380;BME280;37474;59.468;18.040;2023-02-23T07:18:49;101153.56;;;-1.00;100.00
50380;BME280;37474;59.468;18.040;2023-02-23T07:21:17;101153.56;;;-0.91;100.00
50380;BME280;37474;59.468;18.040;2023-02-23T07:23:46;101105.19;;;-1.11;100.00
50380;BME280;37474;59.468;18.040;2023-02-23T07:26:17;101140.88;;;-0.80;100.00
50380;BME280;37474;59.468;18.040;2023-02-23T07:28:45;101134.09;;;-0.66;100.00
50380;BME280;37474;59.468;18.040;2023-02-23T07:31:13;101132.41;;;-0.61;100.00
50380;BME280;37474;59.468;18.040;2023-02-23T07:33:45;101119.66;;;-0.68;100.00
50380;BME280;37474;59.468;18.040;2023-02-23T07:36:14;101133.25;;;-0.65;100.00
50380;BME280;37474;59.468;18.040;2023-02-23T07:38:42;101095.03;;;-0.88;100.00
50380;BME280;37474;59.468;18.040;2023-02-23T07:41:14;101124.78;;;-0.44;100.00
50380;BME280;37474;59.468;18.040;2023-02-23T07:43:42;101088.25;;;-0.69;100.00
50380;BME280;37474;59.468;18.040;2023-02-23T07:46:10;101123.91;;;-0.41;100.00
50380;BME280;37474;59.468;18.040;2023-02-23T07:48:43;101121.34;;;-0.34;100.00
50380;BME280;37474;59.468;18.040;2023-02-23T07:51:14;101121.38;;;-0.21;100.00
50380;BME280;37474;59.468;18.040;2023-02-23T07:53:51;101107.75;;;-0.23;100.00
50380;BME280;37474;59.468;18.040;2023-02-23T07:56:19;101101.84;;;-0.16;100.00
50380;BME280;37474;59.468;18.040;2023-02-23T07:58:47;101105.19;;;-0.08;100.00
50380;BME280;37474;59.468;18.040;2023-02-23T08:01:19;101102.66;;;-0.23;100.00
50380;BME280;37474;59.468;18.040;2023-02-23T08:03:47;101101.81;;;-0.09;100.00
50380;BME280;37474;59.468;18.040;2023-02-23T08:06:19;101104.31;;;0.05;100.00
50380;BME280;37474;59.468;18.040;2023-02-23T08:08:48;101099.22;;;0.17;100.00
50380;BME280;37474;59.468;18.040;2023-02-23T08:11:16;101098.34;;;0.20;100.00
50380;BME280;37474;59.468;18.040;2023-02-23T08:13:45;101027.91;;;-0.10;100.00
50380;BME280;37474;59.468;18.040;2023-02-23T08:16:13;101048.25;;;0.02;100.00
50380;BME280;37474;59.468;18.040;2023-02-23T08:18:42;101054.06;;;0.39;100.00
50380;BME280;37474;59.468;18.040;2023-02-23T08:21:10;101055.75;;;0.45;100.00
50380;BME280;37474;59.468;18.040;2023-02-23T08:23:39;101076.91;;;0.59;100.00
50380;BME280;37474;59.468;18.040;2023-02-23T08:26:07;101055.72;;;0.48;100.00
50380;BME280;37474;59.468;18.040;2023-02-23T08:28:35;101075.22;;;0.58;100.00
50380;BME280;37474;59.468;18.040;2023-02-23T08:31:08;101046.41;;;0.41;100.00
50380;BME280;37474;59.468;18.040;2023-02-23T08:33:37;101026.06;;;0.25;100.00
50380;BME280;37474;59.468;18.040;2023-02-23T08:36:06;101049.84;;;0.34;100.00
50380;BME280;37474;59.468;18.040;2023-02-23T08:38:34;101065.88;;;0.62;100.00
50380;BME280;37474;59.468;18.040;2023-02-23T08:41:06;101061.63;;;0.55;100.00
50380;BME280;37474;59.468;18.040;2023-02-23T08:43:36;101017.41;;;0.57;100.00
50380;BME280;37474;59.468;18.040;2023-02-23T08:46:04;101018.19;;;0.65;100.00
50380;BME280;37474;59.468;18.040;2023-02-23T08:48:35;101047.00;;;0.86;100.00
50380;BME280;37474;59.468;18.040;2023-02-23T08:51:07;101013.03;;;0.76;100.00
50380;BME280;37474;59.468;18.040;2023-02-23T08:53:35;101042.63;;;1.03;100.00
50380;BME280;37474;59.468;18.040;2023-02-23T08:56:07;101041.84;;;0.95;100.00
50380;BME280;37474;59.468;18.040;2023-02-23T08:58:38;101041.81;;;0.96;100.00
50380;BME280;37474;59.468;18.040;2023-02-23T09:01:15;101033.22;;;1.10;100.00
50380;BME280;37474;59.468;18.040;2023-02-23T09:03:45;101037.59;;;0.95;100.00
50380;BME280;37474;59.468;18.040;2023-02-23T09:06:16;101026.66;;;0.75;100.00
50380;BME280;37474;59.468;18.040;2023-02-23T09:08:45;101027.34;;;0.97;100.00
50380;BME280;37474;59.468;18.040;2023-02-23T09:11:14;101032.41;;;1.00;100.00
50380;BME280;37474;59.468;18.040;2023-02-23T09:13:43;101024.81;;;0.94;100.00
50380;BME280;37474;59.468;18.040;2023-02-23T09:16:12;101014.44;;;1.17;100.00
50380;BME280;37474;59.468;18.040;2023-02-23T09:18:42;101013.59;;;1.15;100.00
50380;BME280;37474;59.468;18.040;2023-02-23T09:21:13;101003.28;;;1.28;100.00
50380;BME280;37474;59.468;18.040;2023-02-23T09:23:47;100970.16;;;1.18;100.00
50380;BME280;37474;59.468;18.040;2023-02-23T09:26:18;101006.59;;;1.37;100.00
50380;BME280;37474;59.468;18.040;2023-02-23T09:28:47;101000.56;;;1.44;100.00
50380;BME280;37474;59.468;18.040;2023-02-23T09:31:17;100995.31;;;1.59;100.00
50380;BME280;37474;59.468;18.040;2023-02-23T09:33:45;101000.41;;;1.59;100.00
50380;BME280;37474;59.468;18.040;2023-02-23T09:36:14;100990.16;;;1.62;100.00
50380;BME280;37474;59.468;18.040;2023-02-23T09:38:43;100984.81;;;1.82;100.00
50380;BME280;37474;59.468;18.040;2023-02-23T09:44:17;100982.28;;;1.80;100.00
50380;BME280;37474;59.468;18.040;2023-02-23T09:46:51;100977.09;;;1.88;100.00
50380;BME280;37474;59.468;18.040;2023-02-23T09:49:24;100940.22;;;1.34;100.00
50380;BME280;37474;59.468;18.040;2023-02-23T09:51:57;100930.19;;;1.17;100.00
50380;BME280;37474;59.468;18.040;2023-02-23T09:54:28;100976.53;;;1.60;100.00
50380;BME280;37474;59.468;18.040;2023-02-23T09:56:59;100965.56;;;1.53;100.00
50380;BME280;37474;59.468;18.040;2023-02-23T09:59:29;100968.69;;;1.78;100.00
50380;BME280;37474;59.468;18.040;2023-02-23T10:02:02;100965.66;;;2.17;100.00
50380;BME280;37474;59.468;18.040;2023-02-23T10:04:38;100964.00;;;2.13;100.00
50380;BME280;37474;59.468;18.040;2023-02-23T10:07:13;100960.78;;;2.60;100.00
50380;BME280;37474;59.468;18.040;2023-02-23T10:10:03;100957.75;;;2.35;100.00
50380;BME280;37474;59.468;18.040;2023-02-23T10:12:44;100946.84;;;2.21;100.00
50380;BME280;37474;59.468;18.040;2023-02-23T10:15:22;100947.75;;;2.18;100.00
50380;BME280;37474;59.468;18.040;2023-02-23T10:17:58;100944.97;;;2.32;100.00
50380;BME280;37474;59.468;18.040;2023-02-23T10:20:36;100932.19;;;2.33;100.00
50380;BME280;37474;59.468;18.040;2023-02-23T10:23:10;100934.00;;;2.25;100.00
50380;BME280;37474;59.468;18.040;2023-02-23T10:25:42;100896.47;;;2.26;100.00
50380;BME280;37474;59.468;18.040;2023-02-23T10:28:15;100925.78;;;2.60;100.00
50380;BME280;37474;59.468;18.040;2023-02-23T10:30:44;100908.09;;;2.47;99.93
50380;BME280;37474;59.468;18.040;2023-02-23T10:33:19;100910.47;;;1.99;100.00
50380;BME280;37474;59.468;18.040;2023-02-23T10:35:56;100911.09;;;2.16;100.00
50380;BME280;37474;59.468;18.040;2023-02-23T10:38:40;100911.03;;;2.21;100.00
50380;BME280;37474;59.468;18.040;2023-02-23T10:41:10;100911.25;;;2.04;100.00
50380;BME280;37474;59.468;18.040;2023-02-23T10:43:43;100906.84;;;2.15;100.00
50380;BME280;37474;59.468;18.040;2023-02-23T10:46:18;100906.72;;;2.24;100.00
50380;BME280;37474;59.468;18.040;2023-02-23T10:48:51;100897.84;;;1.90;100.00
50380;BME280;37474;59.468;18.040;2023-02-23T10:51:25;100894.50;;;1.84;100.00
50380;BME280;37474;59.468;18.040;2023-02-23T10:53:55;100891.56;;;2.12;100.00
50380;BME280;37474;59.468;18.040;2023-02-23T10:56:30;100895.13;;;1.99;100.00
50380;BME280;37474;59.468;18.040;2023-02-23T10:59:04;100884.72;;;2.13;100.00
50380;BME280;37474;59.468;18.040;2023-02-23T11:01:36;100887.03;;;2.29;100.00
50380;BME280;37474;59.468;18.040;2023-02-23T11:04:29;100879.78;;;1.99;100.00
50380;BME280;37474;59.468;18.040;2023-02-23T11:07:07;100878.84;;;2.07;100.00
50380;BME280;37474;59.468;18.040;2023-02-23T11:09:35;100877.91;;;2.13;100.00
50380;BME280;37474;59.468;18.040;2023-02-23T11:12:18;100845.44;;;2.18;100.00
50380;BME280;37474;59.468;18.040;2023-02-23T11:14:53;100859.25;;;2.05;100.00
50380;BME280;37474;59.468;18.040;2023-02-23T11:17:26;100862.28;;;2.31;100.00
50380;BME280;37474;59.468;18.040;2023-02-23T11:20:00;100865.47;;;2.44;100.00
50380;BME280;37474;59.468;18.040;2023-02-23T11:22:31;100855.75;;;2.10;100.00
50380;BME280;37474;59.468;18.040;2023-02-23T11:25:13;100854.31;;;1.93;100.00
50380;BME280;37474;59.468;18.040;2023-02-23T11:27:48;100847.25;;;2.11;100.00
50380;BME280;37474;59.468;18.040;2023-02-23T11:30:21;100845.59;;;2.07;100.00
50380;BME280;37474;59.468;18.040;2023-02-23T11:32:54;100836.31;;;2.00;100.00
50380;BME280;37474;59.468;18.040;2023-02-23T11:35:30;100830.81;;;2.25;100.00
50380;BME280;37474;59.468;18.040;2023-02-23T11:38:14;100814.75;;;2.18;100.00
50380;BME280;37474;59.468;18.040;2023-02-23T11:40:57;100832.66;;;2.15;100.00
50380;BME280;37474;59.468;18.040;2023-02-23T11:43:25;100828.72;;;1.94;100.00
50380;BME280;37474;59.468;18.040;2023-02-23T11:45:59;100817.78;;;1.84;100.00
50380;BME280;37474;59.468;18.040;2023-02-23T11:48:31;100814.88;;;2.09;100.00
50380;BME280;37474;59.468;18.040;2023-02-23T11:51:03;100806.22;;;2.16;100.00
50380;BME280;37474;59.468;18.040;2023-02-23T11:53:35;100814.84;;;2.10;100.00
50380;BME280;37474;59.468;18.040;2023-02-23T11:56:06;100808.53;;;2.31;100.00
50380;BME280;37474;59.468;18.040;2023-02-23T11:58:37;100805.78;;;2.44;100.00
50380;BME280;37474;59.468;18.040;2023-02-23T12:01:11;100801.47;;;2.47;100.00
50380;BME280;37474;59.468;18.040;2023-02-23T12:03:45;100805.00;;;2.40;100.00
50380;BME280;37474;59.468;18.040;2023-02-23T12:06:24;100777.63;;;2.44;100.00
50380;BME280;37474;59.468;18.040;2023-02-23T12:09:02;100785.34;;;2.42;100.00
50380;BME280;37474;59.468;18.040;2023-02-23T12:11:38;100781.31;;;2.27;100.00
50380;BME280;37474;59.468;18.040;2023-02-23T12:14:13;100787.88;;;2.44;100.00
50380;BME280;37474;59.468;18.040;2023-02-23T12:16:49;100755.84;;;2.23;100.00
50380;BME280;37474;59.468;18.040;2023-02-23T12:19:24;100770.78;;;2.44;100.00
50380;BME280;37474;59.468;18.040;2023-02-23T12:22:01;100775.28;;;2.31;100.00
50380;BME280;37474;59.468;18.040;2023-02-23T12:24:37;100772.22;;;2.11;100.00
50380;BME280;37474;59.468;18.040;2023-02-23T12:27:10;100771.34;;;2.12;100.00
50380;BME280;37474;59.468;18.040;2023-02-23T12:29:54;100772.41;;;1.99;100.00
50380;BME280;37474;59.468;18.040;2023-02-23T12:32:38;100765.41;;;2.10;100.00
50380;BME280;37474;59.468;18.040;2023-02-23T12:35:13;100762.75;;;2.16;100.00
50380;BME280;37474;59.468;18.040;2023-02-23T12:37:47;100762.88;;;2.08;100.00
50380;BME280;37474;59.468;18.040;2023-02-23T12:40:21;100762.06;;;2.05;100.00
50380;BME280;37474;59.468;18.040;2023-02-23T12:42:57;100759.06;;;1.80;100.00
50380;BME280;37474;59.468;18.040;2023-02-23T12:45:31;100755.56;;;1.85;100.00
50380;BME280;37474;59.468;18.040;2023-02-23T12:48:11;100757.19;;;1.91;100.00
50380;BME280;37474;59.468;18.040;2023-02-23T12:50:45;100754.59;;;1.93;100.00
50380;BME280;37474;59.468;18.040;2023-02-23T12:53:20;100751.13;;;1.97;100.00
50380;BME280;37474;59.468;18.040;2023-02-23T12:56:02;100747.53;;;2.08;100.00
50380;BME280;37474;59.468;18.040;2023-02-23T12:58:39;100744.34;;;1.94;100.00
50380;BME280;37474;59.468;18.040;2023-02-23T13:01:15;100739.09;;;2.03;100.00
50380;BME280;37474;59.468;18.040;2023-02-23T13:04:11;100715.53;;;1.83;100.00
50380;BME280;37474;59.468;18.040;2023-02-23T13:06:52;100733.94;;;2.05;100.00
50380;BME280;37474;59.468;18.040;2023-02-23T13:09:32;100730.88;;;1.84;100.00
50380;BME280;37474;59.468;18.040;2023-02-23T13:15:22;100705.75;;;2.11;100.00
50380;BME280;37474;59.468;18.040;2023-02-23T13:18:00;100697.13;;;2.15;100.00
50380;BME280;37474;59.468;18.040;2023-02-23T13:20:36;100677.91;;;1.93;100.00
50380;BME280;37474;59.468;18.040;2023-02-23T13:23:11;100695.44;;;2.14;100.00